sensor_id;sensor_type;location;lat;lon;timestamp;P1;durP1;ratioP1;P2;durP2;ratioP2
13933;SDS011;7039;52.168;9.866;2022-12-07T00:00:49;40.60;;;18.57;;
13933;SDS011;7039;52.168;9.866;2022-12-07T00:03:18;38.40;;;19.10;;
13933;SDS011;7039;52.168;9.866;2022-12-07T00:05:44;36.87;;;18.37;;
13933;SDS011;7039;52.168;9.866;2022-12-07T00:08:11;44.03;;;18.10;;
13933;SDS011;7039;52.168;9.866;2022-12-07T00:10:38;41.37;;;19.63;;
13933;SDS011;7039;52.168;9.866;2022-12-07T00:13:04;40.80;;;19.30;;
13933;SDS011;7039;52.168;9.866;2022-12-07T00:15:33;37.83;;;18.50;;
13933;SDS011;7039;52.168;9.866;2022-12-07T00:18:00;43.03;;;20.47;;
13933;SDS011;7039;52.168;9.866;2022-12-07T00:20:28;35.27;;;18.53;;
13933;SDS011;7039;52.168;9.866;2022-12-07T00:22:55;36.27;;;17.10;;
13933;SDS011;7039;52.168;9.866;2022-12-07T00:25:21;36.90;;;17.17;;
13933;SDS011;7039;52.168;9.866;2022-12-07T00:27:48;31.23;;;15.07;;
13933;SDS011;7039;52.168;9.866;2022-12-07T00:30:15;30.40;;;15.00;;
13933;SDS011;7039;52.168;9.866;2022-12-07T00:32:42;31.73;;;15.33;;
13933;SDS011;7039;52.168;9.866;2022-12-07T00:35:09;34.80;;;16.00;;
13933;SDS011;7039;52.168;9.866;2022-12-07T00:37:37;35.40;;;16.10;;
13933;SDS011;7039;52.168;9.866;2022-12-07T00:40:04;33.40;;;16.33;;
13933;SDS011;7039;52.168;9.866;2022-12-07T00:42:31;28.10;;;15.80;;
13933;SDS011;7039;52.168;9.866;2022-12-07T00:44:58;24.93;;;13.70;;
13933;SDS011;7039;52.168;9.866;2022-12-07T00:47:24;22.87;;;12.67;;
13933;SDS011;7039;52.168;9.866;2022-12-07T00:49:51;25.63;;;13.33;;
13933;SDS011;7039;52.168;9.866;2022-12-07T00:52:17;21.87;;;13.30;;
13933;SDS011;7039;52.168;9.866;2022-12-07T00:54:45;22.17;;;11.67;;
13933;SDS011;7039;52.168;9.866;2022-12-07T00:57:11;19.87;;;11.43;;
13933;SDS011;7039;52.168;9.866;2022-12-07T00:59:38;19.00;;;10.17;;
13933;SDS011;7039;52.168;9.866;2022-12-07T01:02:04;19.53;;;11.17;;
13933;SDS011;7039;52.168;9.866;2022-12-07T01:04:32;20.73;;;10.57;;
13933;SDS011;7039;52.168;9.866;2022-12-07T01:06:59;19.00;;;11.57;;
13933;SDS011;7039;52.168;9.866;2022-12-07T01:09:26;20.57;;;11.73;;
13933;SDS011;7039;52.168;9.866;2022-12-07T01:11:53;24.93;;;11.60;;
13933;SDS011;7039;52.168;9.866;2022-12-07T01:14:20;20.00;;;11.43;;
13933;SDS011;7039;52.168;9.866;2022-12-07T01:16:46;21.60;;;13.07;;
13933;SDS011;7039;52.168;9.866;2022-12-07T01:19:13;19.13;;;11.47;;
13933;SDS011;7039;52.168;9.866;2022-12-07T01:21:39;21.13;;;11.87;;
13933;SDS011;7039;52.168;9.866;2022-12-07T01:24:07;19.03;;;10.93;;
13933;SDS011;7039;52.168;9.866;2022-12-07T01:26:36;15.53;;;8.87;;
13933;SDS011;7039;52.168;9.866;2022-12-07T01:29:04;24.57;;;13.87;;
13933;SDS011;7039;52.168;9.866;2022-12-07T01:31:31;16.93;;;11.17;;
13933;SDS011;7039;52.168;9.866;2022-12-07T01:33:57;22.20;;;10.97;;
13933;SDS011;7039;52.168;9.866;2022-12-07T01:36:26;23.60;;;13.40;;
13933;SDS011;7039;52.168;9.866;2022-12-07T01:38:54;22.00;;;11.77;;
13933;SDS011;7039;52.168;9.866;2022-12-07T01:41:23;20.50;;;11.97;;
13933;SDS011;7039;52.168;9.866;2022-12-07T01:44:11;16.90;;;10.10;;
13933;SDS011;7039;52.168;9.866;2022-12-07T01:46:46;21.53;;;11.90;;
13933;SDS011;7039;52.168;9.866;2022-12-07T01:49:15;22.17;;;12.87;;
13933;SDS011;7039;52.168;9.866;2022-12-07T01:51:45;22.33;;;12.90;;
13933;SDS011;7039;52.168;9.866;2022-12-07T01:54:13;25.17;;;13.23;;
13933;SDS011;7039;52.168;9.866;2022-12-07T01:56:42;21.13;;;12.80;;
13933;SDS011;7039;52.168;9.866;2022-12-07T01:59:16;24.07;;;13.17;;
13933;SDS011;7039;52.168;9.866;2022-12-07T02:01:46;24.30;;;15.27;;
13933;SDS011;7039;52.168;9.866;2022-12-07T02:04:13;24.63;;;14.77;;
13933;SDS011;7039;52.168;9.866;2022-12-07T02:06:40;19.67;;;12.73;;
13933;SDS011;7039;52.168;9.866;2022-12-07T02:09:09;26.23;;;13.47;;
13933;SDS011;7039;52.168;9.866;2022-12-07T02:11:35;25.80;;;14.70;;
13933;SDS011;7039;52.168;9.866;2022-12-07T02:14:02;28.83;;;15.63;;
13933;SDS011;7039;52.168;9.866;2022-12-07T02:16:32;24.70;;;14.67;;
13933;SDS011;7039;52.168;9.866;2022-12-07T02:19:12;27.20;;;15.27;;
13933;SDS011;7039;52.168;9.866;2022-12-07T02:21:59;28.27;;;16.13;;
13933;SDS011;7039;52.168;9.866;2022-12-07T02:24:43;23.60;;;13.40;;
13933;SDS011;7039;52.168;9.866;2022-12-07T02:30:10;26.97;;;16.10;;
13933;SDS011;7039;52.168;9.866;2022-12-07T02:32:43;27.80;;;16.80;;
13933;SDS011;7039;52.168;9.866;2022-12-07T02:35:15;28.23;;;15.90;;
13933;SDS011;7039;52.168;9.866;2022-12-07T02:37:48;33.13;;;17.00;;
13933;SDS011;7039;52.168;9.866;2022-12-07T02:40:23;26.47;;;14.47;;
13933;SDS011;7039;52.168;9.866;2022-12-07T02:42:55;29.20;;;15.07;;
13933;SDS011;7039;52.168;9.866;2022-12-07T02:45:29;28.83;;;15.43;;
13933;SDS011;7039;52.168;9.866;2022-12-07T02:47:58;34.53;;;15.20;;
13933;SDS011;7039;52.168;9.866;2022-12-07T02:50:26;32.93;;;16.83;;
13933;SDS011;7039;52.168;9.866;2022-12-07T02:52:53;33.63;;;16.40;;
13933;SDS011;7039;52.168;9.866;2022-12-07T02:55:21;31.43;;;16.00;;
13933;SDS011;7039;52.168;9.866;2022-12-07T02:58:17;24.10;;;14.13;;
13933;SDS011;7039;52.168;9.866;2022-12-07T03:00:58;31.90;;;16.93;;
13933;SDS011;7039;52.168;9.866;2022-12-07T03:03:35;30.87;;;15.73;;
13933;SDS011;7039;52.168;9.866;2022-12-07T03:06:08;37.37;;;15.07;;
13933;SDS011;7039;52.168;9.866;2022-12-07T03:08:44;35.17;;;17.93;;
13933;SDS011;7039;52.168;9.866;2022-12-07T03:11:20;34.67;;;16.00;;
13933;SDS011;7039;52.168;9.866;2022-12-07T03:13:51;34.80;;;16.73;;
13933;SDS011;7039;52.168;9.866;2022-12-07T03:16:26;30.03;;;15.10;;
13933;SDS011;7039;52.168;9.866;2022-12-07T03:18:56;25.23;;;11.77;;
13933;SDS011;7039;52.168;9.866;2022-12-07T03:21:26;37.40;;;14.40;;
13933;SDS011;7039;52.168;9.866;2022-12-07T03:23:58;27.30;;;15.47;;
13933;SDS011;7039;52.168;9.866;2022-12-07T03:26:30;29.07;;;13.63;;
13933;SDS011;7039;52.168;9.866;2022-12-07T03:29:00;27.07;;;13.57;;
13933;SDS011;7039;52.168;9.866;2022-12-07T03:31:36;28.47;;;14.20;;
13933;SDS011;7039;52.168;9.866;2022-12-07T03:34:08;27.83;;;13.90;;
13933;SDS011;7039;52.168;9.866;2022-12-07T03:36:40;26.83;;;11.93;;
13933;SDS011;7039;52.168;9.866;2022-12-07T03:39:14;26.90;;;13.13;;
13933;SDS011;7039;52.168;9.866;2022-12-07T03:41:48;27.07;;;13.23;;
13933;SDS011;7039;52.168;9.866;2022-12-07T03:44:16;21.60;;;11.23;;
13933;SDS011;7039;52.168;9.866;2022-12-07T03:46:46;34.37;;;13.90;;
13933;SDS011;7039;52.168;9.866;2022-12-07T03:49:21;19.50;;;9.63;;
13933;SDS011;7039;52.168;9.866;2022-12-07T03:51:54;20.83;;;11.50;;
13933;SDS011;7039;52.168;9.866;2022-12-07T03:54:28;28.67;;;12.50;;
13933;SDS011;7039;52.168;9.866;2022-12-07T03:56:58;28.07;;;12.40;;
13933;SDS011;7039;52.168;9.866;2022-12-07T03:59:27;25.00;;;12.43;;
13933;SDS011;7039;52.168;9.866;2022-12-07T04:02:01;24.07;;;12.13;;
13933;SDS011;7039;52.168;9.866;2022-12-07T04:04:30;26.63;;;13.13;;
13933;SDS011;7039;52.168;9.866;2022-12-07T04:06:58;22.73;;;13.97;;
13933;SDS011;7039;52.168;9.866;2022-12-07T04:09:24;25.23;;;11.90;;
13933;SDS011;7039;52.168;9.866;2022-12-07T04:11:51;25.90;;;12.97;;
13933;SDS011;7039;52.168;9.866;2022-12-07T04:14:18;25.53;;;12.27;;
13933;SDS011;7039;52.168;9.866;2022-12-07T04:16:45;23.03;;;11.03;;
13933;SDS011;7039;52.168;9.866;2022-12-07T04:19:13;18.47;;;9.43;;
13933;SDS011;7039;52.168;9.866;2022-12-07T04:21:41;26.47;;;13.83;;
13933;SDS011;7039;52.168;9.866;2022-12-07T04:24:08;30.57;;;14.43;;
13933;SDS011;7039;52.168;9.866;2022-12-07T04:26:35;26.07;;;13.57;;
13933;SDS011;7039;52.168;9.866;2022-12-07T04:29:02;30.43;;;13.63;;
13933;SDS011;7039;52.168;9.866;2022-12-07T04:31:29;18.67;;;9.83;;
13933;SDS011;7039;52.168;9.866;2022-12-07T04:33:55;24.30;;;12.23;;
13933;SDS011;7039;52.168;9.866;2022-12-07T04:36:23;33.30;;;11.60;;
13933;SDS011;7039;52.168;9.866;2022-12-07T04:38:52;25.30;;;12.40;;
13933;SDS011;7039;52.168;9.866;2022-12-07T04:41:20;17.90;;;9.70;;
13933;SDS011;7039;52.168;9.866;2022-12-07T04:43:52;29.33;;;13.57;;
13933;SDS011;7039;52.168;9.866;2022-12-07T04:46:19;23.93;;;11.50;;
13933;SDS011;7039;52.168;9.866;2022-12-07T04:48:46;15.87;;;8.83;;
13933;SDS011;7039;52.168;9.866;2022-12-07T04:51:12;19.20;;;11.13;;
13933;SDS011;7039;52.168;9.866;2022-12-07T04:53:40;25.60;;;12.77;;
13933;SDS011;7039;52.168;9.866;2022-12-07T04:56:07;28.80;;;12.50;;
13933;SDS011;7039;52.168;9.866;2022-12-07T04:58:33;23.07;;;11.87;;
13933;SDS011;7039;52.168;9.866;2022-12-07T05:01:00;20.17;;;11.03;;
13933;SDS011;7039;52.168;9.866;2022-12-07T05:03:26;25.80;;;10.97;;
13933;SDS011;7039;52.168;9.866;2022-12-07T05:05:53;28.77;;;10.90;;
13933;SDS011;7039;52.168;9.866;2022-12-07T05:08:19;28.83;;;11.93;;
13933;SDS011;7039;52.168;9.866;2022-12-07T05:10:47;21.93;;;12.13;;
13933;SDS011;7039;52.168;9.866;2022-12-07T05:13:14;23.90;;;12.07;;
13933;SDS011;7039;52.168;9.866;2022-12-07T05:15:40;22.63;;;10.13;;
13933;SDS011;7039;52.168;9.866;2022-12-07T05:18:08;25.07;;;11.67;;
13933;SDS011;7039;52.168;9.866;2022-12-07T05:20:37;21.20;;;8.77;;
13933;SDS011;7039;52.168;9.866;2022-12-07T05:23:03;24.53;;;11.03;;
13933;SDS011;7039;52.168;9.866;2022-12-07T05:25:30;19.17;;;9.50;;
13933;SDS011;7039;52.168;9.866;2022-12-07T05:27:58;23.00;;;11.23;;
13933;SDS011;7039;52.168;9.866;2022-12-07T05:30:25;23.67;;;10.60;;
13933;SDS011;7039;52.168;9.866;2022-12-07T05:32:52;23.33;;;11.00;;
13933;SDS011;7039;52.168;9.866;2022-12-07T05:35:19;18.47;;;9.87;;
13933;SDS011;7039;52.168;9.866;2022-12-07T05:37:45;21.37;;;10.20;;
13933;SDS011;7039;52.168;9.866;2022-12-07T05:40:12;26.33;;;10.80;;
13933;SDS011;7039;52.168;9.866;2022-12-07T05:42:39;27.53;;;12.10;;
13933;SDS011;7039;52.168;9.866;2022-12-07T05:45:08;18.33;;;9.20;;
13933;SDS011;7039;52.168;9.866;2022-12-07T05:47:36;23.73;;;11.43;;
13933;SDS011;7039;52.168;9.866;2022-12-07T05:50:03;28.07;;;11.20;;
13933;SDS011;7039;52.168;9.866;2022-12-07T05:52:31;23.73;;;11.20;;
13933;SDS011;7039;52.168;9.866;2022-12-07T05:54:58;22.37;;;10.30;;
13933;SDS011;7039;52.168;9.866;2022-12-07T05:57:24;24.17;;;10.53;;
13933;SDS011;7039;52.168;9.866;2022-12-07T05:59:51;17.80;;;10.67;;
13933;SDS011;7039;52.168;9.866;2022-12-07T06:02:18;19.10;;;9.37;;
13933;SDS011;7039;52.168;9.866;2022-12-07T06:04:45;21.70;;;10.30;;
13933;SDS011;7039;52.168;9.866;2022-12-07T06:07:13;22.33;;;10.13;;
13933;SDS011;7039;52.168;9.866;2022-12-07T06:09:41;19.70;;;10.17;;
13933;SDS011;7039;52.168;9.866;2022-12-07T06:12:09;19.97;;;7.73;;
13933;SDS011;7039;52.168;9.866;2022-12-07T06:14:53;21.83;;;8.23;;
13933;SDS011;7039;52.168;9.866;2022-12-07T06:17:20;19.57;;;8.77;;
13933;SDS011;7039;52.168;9.866;2022-12-07T06:19:47;15.40;;;8.80;;
13933;SDS011;7039;52.168;9.866;2022-12-07T06:22:13;17.77;;;10.00;;
13933;SDS011;7039;52.168;9.866;2022-12-07T06:24:41;17.13;;;9.83;;
13933;SDS011;7039;52.168;9.866;2022-12-07T06:27:08;17.07;;;9.20;;
13933;SDS011;7039;52.168;9.866;2022-12-07T06:29:35;16.40;;;9.20;;
13933;SDS011;7039;52.168;9.866;2022-12-07T06:32:02;20.83;;;8.53;;
13933;SDS011;7039;52.168;9.866;2022-12-07T06:34:31;16.87;;;8.33;;
13933;SDS011;7039;52.168;9.866;2022-12-07T06:36:57;20.60;;;9.30;;
13933;SDS011;7039;52.168;9.866;2022-12-07T06:39:24;16.87;;;8.47;;
13933;SDS011;7039;52.168;9.866;2022-12-07T06:41:52;17.20;;;8.10;;
13933;SDS011;7039;52.168;9.866;2022-12-07T06:44:20;13.30;;;6.70;;
13933;SDS011;7039;52.168;9.866;2022-12-07T06:46:47;21.50;;;8.30;;
13933;SDS011;7039;52.168;9.866;2022-12-07T06:49:13;16.67;;;7.50;;
13933;SDS011;7039;52.168;9.866;2022-12-07T06:51:42;13.10;;;6.77;;
13933;SDS011;7039;52.168;9.866;2022-12-07T06:54:09;13.43;;;7.10;;
13933;SDS011;7039;52.168;9.866;2022-12-07T06:56:35;11.30;;;6.47;;
13933;SDS011;7039;52.168;9.866;2022-12-07T06:59:02;13.30;;;7.03;;
13933;SDS011;7039;52.168;9.866;2022-12-07T07:01:30;19.83;;;7.17;;
13933;SDS011;7039;52.168;9.866;2022-12-07T07:03:57;12.20;;;6.03;;
13933;SDS011;7039;52.168;9.866;2022-12-07T07:06:23;16.23;;;6.50;;
13933;SDS011;7039;52.168;9.866;2022-12-07T07:08:51;14.47;;;5.47;;
13933;SDS011;7039;52.168;9.866;2022-12-07T07:11:18;13.27;;;6.17;;
13933;SDS011;7039;52.168;9.866;2022-12-07T07:13:44;12.97;;;7.03;;
13933;SDS011;7039;52.168;9.866;2022-12-07T07:16:11;12.37;;;7.33;;
13933;SDS011;7039;52.168;9.866;2022-12-07T07:18:37;12.70;;;5.90;;
13933;SDS011;7039;52.168;9.866;2022-12-07T07:21:04;13.50;;;7.97;;
13933;SDS011;7039;52.168;9.866;2022-12-07T07:23:31;20.57;;;8.07;;
13933;SDS011;7039;52.168;9.866;2022-12-07T07:25:59;10.77;;;5.30;;
13933;SDS011;7039;52.168;9.866;2022-12-07T07:28:26;13.30;;;5.27;;
13933;SDS011;7039;52.168;9.866;2022-12-07T07:30:52;11.37;;;4.90;;
13933;SDS011;7039;52.168;9.866;2022-12-07T07:33:19;7.73;;;4.77;;
13933;SDS011;7039;52.168;9.866;2022-12-07T07:35:45;10.33;;;5.17;;
13933;SDS011;7039;52.168;9.866;2022-12-07T07:38:11;8.80;;;4.70;;
13933;SDS011;7039;52.168;9.866;2022-12-07T07:40:38;12.63;;;5.10;;
13933;SDS011;7039;52.168;9.866;2022-12-07T07:43:06;14.13;;;5.40;;
13933;SDS011;7039;52.168;9.866;2022-12-07T07:45:32;10.53;;;6.50;;
13933;SDS011;7039;52.168;9.866;2022-12-07T07:47:59;9.47;;;5.90;;
13933;SDS011;7039;52.168;9.866;2022-12-07T07:50:25;13.77;;;6.90;;
13933;SDS011;7039;52.168;9.866;2022-12-07T07:52:52;11.33;;;6.67;;
13933;SDS011;7039;52.168;9.866;2022-12-07T07:55:18;14.03;;;7.37;;
13933;SDS011;7039;52.168;9.866;2022-12-07T07:57:44;12.57;;;7.27;;
13933;SDS011;7039;52.168;9.866;2022-12-07T08:00:13;13.00;;;7.43;;
13933;SDS011;7039;52.168;9.866;2022-12-07T08:02:41;11.40;;;6.63;;
13933;SDS011;7039;52.168;9.866;2022-12-07T08:05:08;13.93;;;7.27;;
13933;SDS011;7039;52.168;9.866;2022-12-07T08:07:36;10.77;;;6.23;;
13933;SDS011;7039;52.168;9.866;2022-12-07T08:10:02;13.60;;;6.20;;
13933;SDS011;7039;52.168;9.866;2022-12-07T08:12:29;9.33;;;5.23;;
13933;SDS011;7039;52.168;9.866;2022-12-07T08:14:56;7.63;;;5.03;;
13933;SDS011;7039;52.168;9.866;2022-12-07T08:17:24;11.10;;;4.83;;
13933;SDS011;7039;52.168;9.866;2022-12-07T08:19:50;10.17;;;4.53;;
13933;SDS011;7039;52.168;9.866;2022-12-07T08:22:17;8.57;;;4.23;;
13933;SDS011;7039;52.168;9.866;2022-12-07T08:24:44;10.40;;;4.53;;
13933;SDS011;7039;52.168;9.866;2022-12-07T08:27:10;8.30;;;4.37;;
13933;SDS011;7039;52.168;9.866;2022-12-07T08:29:36;7.33;;;3.90;;
13933;SDS011;7039;52.168;9.866;2022-12-07T08:32:03;9.10;;;4.03;;
13933;SDS011;7039;52.168;9.866;2022-12-07T08:34:31;11.83;;;4.40;;
13933;SDS011;7039;52.168;9.866;2022-12-07T08:36:57;11.80;;;4.13;;
13933;SDS011;7039;52.168;9.866;2022-12-07T08:39:24;8.17;;;4.37;;
13933;SDS011;7039;52.168;9.866;2022-12-07T08:41:50;10.27;;;5.60;;
13933;SDS011;7039;52.168;9.866;2022-12-07T08:44:17;15.47;;;4.30;;
13933;SDS011;7039;52.168;9.866;2022-12-07T08:46:44;5.70;;;3.83;;
13933;SDS011;7039;52.168;9.866;2022-12-07T08:49:16;7.13;;;4.50;;
13933;SDS011;7039;52.168;9.866;2022-12-07T08:51:47;10.47;;;3.47;;
13933;SDS011;7039;52.168;9.866;2022-12-07T08:54:14;7.00;;;4.13;;
13933;SDS011;7039;52.168;9.866;2022-12-07T08:56:43;11.03;;;3.30;;
13933;SDS011;7039;52.168;9.866;2022-12-07T08:59:12;12.10;;;3.57;;
13933;SDS011;7039;52.168;9.866;2022-12-07T09:01:40;6.93;;;3.40;;
13933;SDS011;7039;52.168;9.866;2022-12-07T09:04:06;7.07;;;3.70;;
13933;SDS011;7039;52.168;9.866;2022-12-07T09:06:33;9.57;;;4.23;;
13933;SDS011;7039;52.168;9.866;2022-12-07T09:09:01;5.87;;;3.83;;
13933;SDS011;7039;52.168;9.866;2022-12-07T09:11:28;5.70;;;4.37;;
13933;SDS011;7039;52.168;9.866;2022-12-07T09:13:55;7.77;;;4.47;;
13933;SDS011;7039;52.168;9.866;2022-12-07T09:16:22;12.40;;;5.77;;
13933;SDS011;7039;52.168;9.866;2022-12-07T09:18:48;8.50;;;5.40;;
13933;SDS011;7039;52.168;9.866;2022-12-07T09:21:15;10.97;;;5.73;;
13933;SDS011;7039;52.168;9.866;2022-12-07T09:23:41;14.67;;;5.60;;
13933;SDS011;7039;52.168;9.866;2022-12-07T09:26:09;12.20;;;5.73;;
13933;SDS011;7039;52.168;9.866;2022-12-07T09:28:36;7.53;;;5.10;;
13933;SDS011;7039;52.168;9.866;2022-12-07T09:31:03;7.20;;;4.77;;
13933;SDS011;7039;52.168;9.866;2022-12-07T09:33:30;5.23;;;4.00;;
13933;SDS011;7039;52.168;9.866;2022-12-07T09:35:57;7.70;;;3.10;;
13933;SDS011;7039;52.168;9.866;2022-12-07T09:38:24;8.37;;;3.80;;
13933;SDS011;7039;52.168;9.866;2022-12-07T09:40:51;15.97;;;4.93;;
13933;SDS011;7039;52.168;9.866;2022-12-07T09:43:22;5.97;;;3.00;;
13933;SDS011;7039;52.168;9.866;2022-12-07T09:45:50;3.37;;;2.77;;
13933;SDS011;7039;52.168;9.866;2022-12-07T09:48:20;5.07;;;2.50;;
13933;SDS011;7039;52.168;9.866;2022-12-07T09:50:48;6.10;;;2.87;;
13933;SDS011;7039;52.168;9.866;2022-12-07T09:53:18;13.50;;;4.10;;
13933;SDS011;7039;52.168;9.866;2022-12-07T09:55:51;4.90;;;2.13;;
13933;SDS011;7039;52.168;9.866;2022-12-07T09:58:19;4.77;;;2.33;;
13933;SDS011;7039;52.168;9.866;2022-12-07T10:00:49;4.17;;;1.87;;
13933;SDS011;7039;52.168;9.866;2022-12-07T10:03:18;4.67;;;2.53;;
13933;SDS011;7039;52.168;9.866;2022-12-07T10:05:46;5.90;;;2.60;;
13933;SDS011;7039;52.168;9.866;2022-12-07T10:08:15;3.33;;;2.40;;
13933;SDS011;7039;52.168;9.866;2022-12-07T10:10:42;5.30;;;2.70;;
13933;SDS011;7039;52.168;9.866;2022-12-07T10:13:10;5.10;;;2.43;;
13933;SDS011;7039;52.168;9.866;2022-12-07T10:15:43;7.27;;;2.40;;
13933;SDS011;7039;52.168;9.866;2022-12-07T10:18:16;2.10;;;1.73;;
13933;SDS011;7039;52.168;9.866;2022-12-07T10:20:45;3.77;;;2.17;;
13933;SDS011;7039;52.168;9.866;2022-12-07T10:23:13;6.07;;;2.37;;
13933;SDS011;7039;52.168;9.866;2022-12-07T10:25:41;4.90;;;2.17;;
13933;SDS011;7039;52.168;9.866;2022-12-07T10:28:10;5.63;;;2.60;;
13933;SDS011;7039;52.168;9.866;2022-12-07T10:30:48;3.50;;;2.37;;
13933;SDS011;7039;52.168;9.866;2022-12-07T10:33:27;3.67;;;2.43;;
13933;SDS011;7039;52.168;9.866;2022-12-07T10:35:55;5.03;;;2.30;;
13933;SDS011;7039;52.168;9.866;2022-12-07T10:38:22;4.00;;;1.80;;
13933;SDS011;7039;52.168;9.866;2022-12-07T10:40:54;2.40;;;1.93;;
13933;SDS011;7039;52.168;9.866;2022-12-07T10:43:29;5.47;;;2.77;;
13933;SDS011;7039;52.168;9.866;2022-12-07T10:46:09;3.00;;;2.00;;
13933;SDS011;7039;52.168;9.866;2022-12-07T10:48:46;4.00;;;2.67;;
13933;SDS011;7039;52.168;9.866;2022-12-07T10:51:23;4.67;;;2.57;;
13933;SDS011;7039;52.168;9.866;2022-12-07T10:53:58;7.13;;;2.30;;
13933;SDS011;7039;52.168;9.866;2022-12-07T10:59:39;3.03;;;2.70;;
13933;SDS011;7039;52.168;9.866;2022-12-07T11:02:23;6.97;;;3.23;;
13933;SDS011;7039;52.168;9.866;2022-12-07T11:04:59;3.60;;;3.13;;
13933;SDS011;7039;52.168;9.866;2022-12-07T11:07:36;2.47;;;2.10;;
13933;SDS011;7039;52.168;9.866;2022-12-07T11:10:11;10.30;;;3.30;;
13933;SDS011;7039;52.168;9.866;2022-12-07T11:12:47;7.00;;;3.00;;
13933;SDS011;7039;52.168;9.866;2022-12-07T11:15:24;11.30;;;3.00;;
13933;SDS011;7039;52.168;9.866;2022-12-07T11:17:56;9.30;;;3.10;;
13933;SDS011;7039;52.168;9.866;2022-12-07T11:20:34;6.07;;;2.57;;
13933;SDS011;7039;52.168;9.866;2022-12-07T11:23:12;6.33;;;2.43;;
13933;SDS011;7039;52.168;9.866;2022-12-07T11:25:46;5.33;;;3.20;;
13933;SDS011;7039;52.168;9.866;2022-12-07T11:28:21;41.73;;;3.23;;
13933;SDS011;7039;52.168;9.866;2022-12-07T11:31:00;4.80;;;2.87;;
13933;SDS011;7039;52.168;9.866;2022-12-07T11:33:35;4.57;;;3.10;;
13933;SDS011;7039;52.168;9.866;2022-12-07T11:36:12;7.47;;;3.47;;
13933;SDS011;7039;52.168;9.866;2022-12-07T11:38:56;8.27;;;4.20;;
13933;SDS011;7039;52.168;9.866;2022-12-07T11:41:28;6.20;;;3.13;;
13933;SDS011;7039;52.168;9.866;2022-12-07T11:43:59;10.27;;;4.10;;
13933;SDS011;7039;52.168;9.866;2022-12-07T11:46:35;10.30;;;3.00;;
13933;SDS011;7039;52.168;9.866;2022-12-07T11:49:13;4.97;;;3.30;;
13933;SDS011;7039;52.168;9.866;2022-12-07T11:51:47;6.97;;;3.07;;
13933;SDS011;7039;52.168;9.866;2022-12-07T11:54:17;6.80;;;3.03;;
13933;SDS011;7039;52.168;9.866;2022-12-07T11:56:48;6.37;;;3.97;;
13933;SDS011;7039;52.168;9.866;2022-12-07T11:59:17;7.57;;;3.03;;
13933;SDS011;7039;52.168;9.866;2022-12-07T12:01:52;10.50;;;3.90;;
13933;SDS011;7039;52.168;9.866;2022-12-07T12:04:27;5.97;;;4.70;;
13933;SDS011;7039;52.168;9.866;2022-12-07T12:07:00;8.07;;;2.73;;
13933;SDS011;7039;52.168;9.866;2022-12-07T12:09:29;7.33;;;3.43;;
13933;SDS011;7039;52.168;9.866;2022-12-07T12:12:15;7.23;;;2.57;;
13933;SDS011;7039;52.168;9.866;2022-12-07T12:14:54;10.30;;;3.20;;
13933;SDS011;7039;52.168;9.866;2022-12-07T12:17:38;3.27;;;2.40;;
13933;SDS011;7039;52.168;9.866;2022-12-07T12:20:20;4.97;;;2.60;;
13933;SDS011;7039;52.168;9.866;2022-12-07T12:22:52;12.77;;;3.00;;
13933;SDS011;7039;52.168;9.866;2022-12-07T12:25:25;8.07;;;2.67;;
13933;SDS011;7039;52.168;9.866;2022-12-07T12:27:54;9.67;;;3.23;;
13933;SDS011;7039;52.168;9.866;2022-12-07T12:30:25;5.97;;;3.30;;
13933;SDS011;7039;52.168;9.866;2022-12-07T12:33:01;5.40;;;2.57;;
13933;SDS011;7039;52.168;9.866;2022-12-07T12:35:33;6.47;;;3.07;;
13933;SDS011;7039;52.168;9.866;2022-12-07T12:38:21;6.00;;;3.00;;
13933;SDS011;7039;52.168;9.866;2022-12-07T12:40:53;6.10;;;2.90;;
13933;SDS011;7039;52.168;9.866;2022-12-07T12:43:42;19.90;;;4.37;;
13933;SDS011;7039;52.168;9.866;2022-12-07T12:49:32;6.93;;;2.63;;
13933;SDS011;7039;52.168;9.866;2022-12-07T12:58:31;9.37;;;2.70;;
13933;SDS011;7039;52.168;9.866;2022-12-07T13:04:25;5.97;;;2.97;;
13933;SDS011;7039;52.168;9.866;2022-12-07T13:06:55;10.93;;;2.90;;
13933;SDS011;7039;52.168;9.866;2022-12-07T13:09:22;10.90;;;2.90;;
13933;SDS011;7039;52.168;9.866;2022-12-07T13:11:55;7.33;;;2.97;;
13933;SDS011;7039;52.168;9.866;2022-12-07T13:14:40;5.93;;;2.33;;
13933;SDS011;7039;52.168;9.866;2022-12-07T13:17:09;6.90;;;3.87;;
13933;SDS011;7039;52.168;9.866;2022-12-07T13:25:27;3.63;;;2.00;;
13933;SDS011;7039;52.168;9.866;2022-12-07T13:27:59;11.10;;;2.93;;
13933;SDS011;7039;52.168;9.866;2022-12-07T13:30:30;6.40;;;2.57;;
13933;SDS011;7039;52.168;9.866;2022-12-07T13:32:58;6.27;;;2.30;;
13933;SDS011;7039;52.168;9.866;2022-12-07T13:35:32;3.90;;;2.13;;
13933;SDS011;7039;52.168;9.866;2022-12-07T13:38:02;22.30;;;6.20;;
13933;SDS011;7039;52.168;9.866;2022-12-07T13:40:32;5.87;;;2.23;;
13933;SDS011;7039;52.168;9.866;2022-12-07T13:42:59;9.60;;;2.80;;
13933;SDS011;7039;52.168;9.866;2022-12-07T13:45:27;8.30;;;2.43;;
13933;SDS011;7039;52.168;9.866;2022-12-07T13:48:15;11.50;;;2.13;;
13933;SDS011;7039;52.168;9.866;2022-12-07T13:50:52;9.80;;;3.80;;
13933;SDS011;7039;52.168;9.866;2022-12-07T13:53:19;9.27;;;2.33;;
13933;SDS011;7039;52.168;9.866;2022-12-07T13:55:46;9.20;;;3.17;;
13933;SDS011;7039;52.168;9.866;2022-12-07T13:58:13;6.70;;;2.67;;
13933;SDS011;7039;52.168;9.866;2022-12-07T14:00:40;11.27;;;2.80;;
13933;SDS011;7039;52.168;9.866;2022-12-07T14:03:23;5.70;;;2.10;;
13933;SDS011;7039;52.168;9.866;2022-12-07T14:06:04;4.67;;;2.63;;
13933;SDS011;7039;52.168;9.866;2022-12-07T14:08:40;7.07;;;2.07;;
13933;SDS011;7039;52.168;9.866;2022-12-07T14:11:07;8.90;;;2.57;;
13933;SDS011;7039;52.168;9.866;2022-12-07T14:13:39;6.47;;;1.90;;
13933;SDS011;7039;52.168;9.866;2022-12-07T14:16:17;9.53;;;2.40;;
13933;SDS011;7039;52.168;9.866;2022-12-07T14:18:50;17.00;;;2.83;;
13933;SDS011;7039;52.168;9.866;2022-12-07T14:21:18;5.53;;;2.00;;
13933;SDS011;7039;52.168;9.866;2022-12-07T14:24:01;5.80;;;1.67;;
13933;SDS011;7039;52.168;9.866;2022-12-07T14:26:35;3.07;;;1.80;;
13933;SDS011;7039;52.168;9.866;2022-12-07T14:31:57;16.53;;;2.90;;
13933;SDS011;7039;52.168;9.866;2022-12-07T14:34:28;9.17;;;2.17;;
13933;SDS011;7039;52.168;9.866;2022-12-07T14:36:55;5.37;;;2.40;;
13933;SDS011;7039;52.168;9.866;2022-12-07T14:39:21;3.60;;;2.00;;
13933;SDS011;7039;52.168;9.866;2022-12-07T14:41:47;9.47;;;2.30;;
13933;SDS011;7039;52.168;9.866;2022-12-07T14:44:18;6.97;;;2.57;;
13933;SDS011;7039;52.168;9.866;2022-12-07T14:46:46;8.60;;;2.20;;
13933;SDS011;7039;52.168;9.866;2022-12-07T14:49:12;4.33;;;1.87;;
13933;SDS011;7039;52.168;9.866;2022-12-07T14:51:40;6.23;;;2.07;;
13933;SDS011;7039;52.168;9.866;2022-12-07T14:54:11;9.67;;;2.23;;
13933;SDS011;7039;52.168;9.866;2022-12-07T14:56:41;7.87;;;2.03;;
13933;SDS011;7039;52.168;9.866;2022-12-07T14:59:08;8.40;;;2.30;;
13933;SDS011;7039;52.168;9.866;2022-12-07T15:01:35;7.83;;;1.80;;
13933;SDS011;7039;52.168;9.866;2022-12-07T15:04:02;5.60;;;2.10;;
13933;SDS011;7039;52.168;9.866;2022-12-07T15:06:28;2.97;;;1.53;;
13933;SDS011;7039;52.168;9.866;2022-12-07T15:08:56;4.40;;;1.40;;
13933;SDS011;7039;52.168;9.866;2022-12-07T15:11:22;7.77;;;2.00;;
13933;SDS011;7039;52.168;9.866;2022-12-07T15:13:49;6.50;;;1.73;;
13933;SDS011;7039;52.168;9.866;2022-12-07T15:16:35;10.83;;;1.87;;
13933;SDS011;7039;52.168;9.866;2022-12-07T15:19:04;5.10;;;1.43;;
13933;SDS011;7039;52.168;9.866;2022-12-07T15:21:31;5.60;;;1.63;;
13933;SDS011;7039;52.168;9.866;2022-12-07T15:23:59;7.70;;;1.93;;
13933;SDS011;7039;52.168;9.866;2022-12-07T15:26:25;5.20;;;1.60;;
13933;SDS011;7039;52.168;9.866;2022-12-07T15:28:52;5.90;;;1.93;;
13933;SDS011;7039;52.168;9.866;2022-12-07T15:31:19;6.73;;;1.40;;